Aeroporto :
LOGIN :

Iscrizione | Disclaimer

   EN    FR    IT 

 










Sommario :    VFR   VFR Marginale   IFR   IFR Intensivo   IFR Molto Intensivo
Visibilità : 
Base nubi : 
>= 8 km
>= 3000ft
5 / 8 km
1000 / 3000 ft
1500m / 5 km
500 / 1000 ft
800 / 1500m
200 / 500 ft
< 800m
< 200 ft
Simboli :   Temporali  Nebbia  Neve Forte  Precipitazioni Forti  Vento > 20 kt
SIGMETs :   Varie  Temporali  Ghiacco  Turbolenza  Onda orograficha  Ceneri Vulcaniche







- Altitudine del aeroporto : 238 ft
- Codice IATA : FAB
- Carte del aeroporto


EGLF - Farnborough

ULTIMO METAR :
  • 251520Z AUTO 35007KT 320V020 9999 BKN017/// BKN023/// OVC030/// 22/18 Q1019

METARs OBSOLETI :
  • 251450Z AUTO 30006KT 270V330 9999 SCT016/// BKN020/// 22/18 Q1019
  • 251420Z AUTO 30006KT 260V350 9999 SCT014/// SCT027/// 22/19 Q1019
  • 251350Z AUTO 30007KT 260V330 9999 BKN012/// BKN026/// 22/19 Q1019
  • 251320Z AUTO 31006KT 9999 FEW017/// SCT027/// 22/18 Q1019
  • 251250Z AUTO 31005KT 270V330 9999 SCT017/// BKN026/// 21/18 Q1018

TAF TAF EGLF
Valido dal 25 a 15 ore il 25 a 23 ore UTC


251403Z 2515/2523 31006KT 9999 SCT025
PROB30
TEMPO 2515/2516 BKN012
PROB30 2521/2523 BKN014
ATIS : +44 09063 800 400 (*282)
Nessun NOTAM noto per questo aeroporto.
1 SIGMET conosciuto per la FIR London (EGTT) :
 
Temporali affogati
EGTT SIGMET 04 VALID 251300/251700 EGRR
EGTT LONDON FIR EMBD TS FCST WI N5446 E00441 - N5302 W00002 - N5455 E00147 - N5500 E00214 - N5500 E00448 - N5446 E00441 TOP FL350 MOV NE 15KT WKN=



MetMap, La meteo Aeronautica in un colpo d'occhio ! - Copyright ORBIFLY Dicembre 2007 - Disclaimer

ORBIFLY MET'MAP TEAM :

Programmazione e sviluppo : Alexandra Zaïnal
Concezione e sviluppo : Baudouin d'Aumeries
Co-Programmazione e sviluppo : Marc-Olivier Méhu
Supporto tecnico e logistico : Manuel Goepfert
Aiuto per la traduzione : Arnaldo La Scala

Contatto : metmap@orbifly.com




FONTI E CREDITI :

   NOAA